sensor_id;sensor_type;location;lat;lon;timestamp;temperature;humidity
13332;DHT22;6735;51.456;12.626;2022-08-03T00:01:50;18.30;76.20
13332;DHT22;6735;51.456;12.626;2022-08-03T00:04:15;18.30;76.20
13332;DHT22;6735;51.456;12.626;2022-08-03T00:06:41;18.30;76.20
13332;DHT22;6735;51.456;12.626;2022-08-03T00:09:07;18.20;76.30
13332;DHT22;6735;51.456;12.626;2022-08-03T00:11:33;18.20;76.40
13332;DHT22;6735;51.456;12.626;2022-08-03T00:13:59;18.20;76.40
13332;DHT22;6735;51.456;12.626;2022-08-03T00:16:25;18.20;76.60
13332;DHT22;6735;51.456;12.626;2022-08-03T00:18:51;18.20;76.70
13332;DHT22;6735;51.456;12.626;2022-08-03T00:21:16;18.20;76.80
13332;DHT22;6735;51.456;12.626;2022-08-03T00:23:42;18.20;76.90
13332;DHT22;6735;51.456;12.626;2022-08-03T00:26:07;18.20;77.10
13332;DHT22;6735;51.456;12.626;2022-08-03T00:28:33;18.10;77.30
13332;DHT22;6735;51.456;12.626;2022-08-03T00:30:58;18.10;77.40
13332;DHT22;6735;51.456;12.626;2022-08-03T00:33:24;18.10;77.40
13332;DHT22;6735;51.456;12.626;2022-08-03T00:35:50;18.00;77.60
13332;DHT22;6735;51.456;12.626;2022-08-03T00:38:16;18.00;77.80
13332;DHT22;6735;51.456;12.626;2022-08-03T00:40:41;17.90;78.00
13332;DHT22;6735;51.456;12.626;2022-08-03T00:43:07;17.90;78.20
13332;DHT22;6735;51.456;12.626;2022-08-03T00:45:35;17.70;78.60
13332;DHT22;6735;51.456;12.626;2022-08-03T00:48:02;17.80;78.80
13332;DHT22;6735;51.456;12.626;2022-08-03T00:50:29;17.70;78.80
13332;DHT22;6735;51.456;12.626;2022-08-03T00:52:57;17.70;78.70
13332;DHT22;6735;51.456;12.626;2022-08-03T00:55:23;17.70;78.80
13332;DHT22;6735;51.456;12.626;2022-08-03T00:57:48;17.70;78.80
13332;DHT22;6735;51.456;12.626;2022-08-03T01:00:18;17.70;78.80
13332;DHT22;6735;51.456;12.626;2022-08-03T01:02:44;17.70;78.80
13332;DHT22;6735;51.456;12.626;2022-08-03T01:05:10;17.70;79.00
13332;DHT22;6735;51.456;12.626;2022-08-03T01:18:35;17.50;79.50
13332;DHT22;6735;51.456;12.626;2022-08-03T01:21:09;17.50;79.30
13332;DHT22;6735;51.456;12.626;2022-08-03T01:23:53;17.50;79.20
13332;DHT22;6735;51.456;12.626;2022-08-03T01:26:36;17.50;79.30
13332;DHT22;6735;51.456;12.626;2022-08-03T01:29:16;17.50;79.40
13332;DHT22;6735;51.456;12.626;2022-08-03T01:31:49;17.40;79.50
13332;DHT22;6735;51.456;12.626;2022-08-03T01:34:19;17.40;79.50
13332;DHT22;6735;51.456;12.626;2022-08-03T01:36:50;17.30;79.60
13332;DHT22;6735;51.456;12.626;2022-08-03T01:39:18;17.30;79.80
13332;DHT22;6735;51.456;12.626;2022-08-03T01:41:55;17.20;79.90
13332;DHT22;6735;51.456;12.626;2022-08-03T01:44:25;17.20;80.00
13332;DHT22;6735;51.456;12.626;2022-08-03T01:46:51;17.20;80.20
13332;DHT22;6735;51.456;12.626;2022-08-03T01:49:17;17.20;80.50
13332;DHT22;6735;51.456;12.626;2022-08-03T01:51:46;17.10;80.40
13332;DHT22;6735;51.456;12.626;2022-08-03T01:54:13;17.10;80.50
13332;DHT22;6735;51.456;12.626;2022-08-03T01:56:40;17.10;80.60
13332;DHT22;6735;51.456;12.626;2022-08-03T01:59:08;17.10;80.70
13332;DHT22;6735;51.456;12.626;2022-08-03T02:01:36;17.00;80.70
13332;DHT22;6735;51.456;12.626;2022-08-03T02:04:03;17.00;80.80
13332;DHT22;6735;51.456;12.626;2022-08-03T02:06:31;17.00;80.80
13332;DHT22;6735;51.456;12.626;2022-08-03T02:08:58;17.00;80.90
13332;DHT22;6735;51.456;12.626;2022-08-03T02:11:25;17.00;80.80
13332;DHT22;6735;51.456;12.626;2022-08-03T02:13:51;17.00;80.90
13332;DHT22;6735;51.456;12.626;2022-08-03T02:16:18;17.10;80.70
13332;DHT22;6735;51.456;12.626;2022-08-03T02:18:45;17.00;80.70
13332;DHT22;6735;51.456;12.626;2022-08-03T02:21:12;17.00;80.80
13332;DHT22;6735;51.456;12.626;2022-08-03T02:23:39;17.00;80.90
13332;DHT22;6735;51.456;12.626;2022-08-03T02:26:09;17.00;81.00
13332;DHT22;6735;51.456;12.626;2022-08-03T02:28:39;17.00;81.10
13332;DHT22;6735;51.456;12.626;2022-08-03T02:31:12;16.90;81.20
13332;DHT22;6735;51.456;12.626;2022-08-03T02:33:41;16.80;81.30
13332;DHT22;6735;51.456;12.626;2022-08-03T02:36:08;16.80;81.60
13332;DHT22;6735;51.456;12.626;2022-08-03T02:38:38;16.80;81.70
13332;DHT22;6735;51.456;12.626;2022-08-03T02:41:10;16.70;81.60
13332;DHT22;6735;51.456;12.626;2022-08-03T02:43:39;16.70;81.70
13332;DHT22;6735;51.456;12.626;2022-08-03T02:46:06;16.70;81.70
13332;DHT22;6735;51.456;12.626;2022-08-03T02:48:33;16.80;81.70
13332;DHT22;6735;51.456;12.626;2022-08-03T02:51:02;16.70;81.70
13332;DHT22;6735;51.456;12.626;2022-08-03T02:53:28;16.70;81.50
13332;DHT22;6735;51.456;12.626;2022-08-03T02:55:55;16.70;81.70
13332;DHT22;6735;51.456;12.626;2022-08-03T02:58:22;16.70;81.60
13332;DHT22;6735;51.456;12.626;2022-08-03T03:00:50;16.70;81.70
13332;DHT22;6735;51.456;12.626;2022-08-03T03:03:16;16.70;81.80
13332;DHT22;6735;51.456;12.626;2022-08-03T03:05:43;16.70;81.80
13332;DHT22;6735;51.456;12.626;2022-08-03T03:08:12;16.70;81.80
13332;DHT22;6735;51.456;12.626;2022-08-03T03:10:38;16.60;81.90
13332;DHT22;6735;51.456;12.626;2022-08-03T03:13:05;16.60;81.90
13332;DHT22;6735;51.456;12.626;2022-08-03T03:15:34;16.60;82.00
13332;DHT22;6735;51.456;12.626;2022-08-03T03:18:01;16.60;82.10
13332;DHT22;6735;51.456;12.626;2022-08-03T03:20:27;16.60;82.20
13332;DHT22;6735;51.456;12.626;2022-08-03T03:22:53;16.60;82.10
13332;DHT22;6735;51.456;12.626;2022-08-03T03:25:20;16.60;82.20
13332;DHT22;6735;51.456;12.626;2022-08-03T03:27:46;16.60;82.20
13332;DHT22;6735;51.456;12.626;2022-08-03T03:30:13;16.50;82.40
13332;DHT22;6735;51.456;12.626;2022-08-03T03:32:38;16.60;82.40
13332;DHT22;6735;51.456;12.626;2022-08-03T03:35:05;16.50;82.30
13332;DHT22;6735;51.456;12.626;2022-08-03T03:37:31;16.50;82.30
13332;DHT22;6735;51.456;12.626;2022-08-03T03:39:57;16.50;82.50
13332;DHT22;6735;51.456;12.626;2022-08-03T03:42:23;16.50;82.40
13332;DHT22;6735;51.456;12.626;2022-08-03T03:44:49;16.50;82.50
13332;DHT22;6735;51.456;12.626;2022-08-03T03:47:15;16.50;82.50
13332;DHT22;6735;51.456;12.626;2022-08-03T03:49:40;16.50;82.50
13332;DHT22;6735;51.456;12.626;2022-08-03T03:52:07;16.50;82.90
13332;DHT22;6735;51.456;12.626;2022-08-03T03:54:39;16.50;82.90
13332;DHT22;6735;51.456;12.626;2022-08-03T03:57:05;16.50;82.80
13332;DHT22;6735;51.456;12.626;2022-08-03T03:59:31;16.50;82.80
13332;DHT22;6735;51.456;12.626;2022-08-03T04:01:57;16.60;82.80
13332;DHT22;6735;51.456;12.626;2022-08-03T04:04:22;16.60;82.70
13332;DHT22;6735;51.456;12.626;2022-08-03T04:07:07;16.60;82.70
13332;DHT22;6735;51.456;12.626;2022-08-03T04:09:51;16.60;82.70
13332;DHT22;6735;51.456;12.626;2022-08-03T04:12:37;16.60;82.80
13332;DHT22;6735;51.456;12.626;2022-08-03T04:15:03;16.70;82.70
13332;DHT22;6735;51.456;12.626;2022-08-03T04:17:31;16.70;82.80
13332;DHT22;6735;51.456;12.626;2022-08-03T04:19:57;16.70;82.70
13332;DHT22;6735;51.456;12.626;2022-08-03T04:22:28;16.80;82.70
13332;DHT22;6735;51.456;12.626;2022-08-03T04:25:01;16.80;82.80
13332;DHT22;6735;51.456;12.626;2022-08-03T04:27:33;16.90;82.70
13332;DHT22;6735;51.456;12.626;2022-08-03T04:30:03;16.90;82.80
13332;DHT22;6735;51.456;12.626;2022-08-03T04:32:29;17.00;83.00
13332;DHT22;6735;51.456;12.626;2022-08-03T04:34:56;17.00;82.80
13332;DHT22;6735;51.456;12.626;2022-08-03T04:37:37;17.00;82.80
13332;DHT22;6735;51.456;12.626;2022-08-03T04:40:07;17.10;82.80
13332;DHT22;6735;51.456;12.626;2022-08-03T04:42:34;17.10;82.80
13332;DHT22;6735;51.456;12.626;2022-08-03T04:45:02;17.20;82.80
13332;DHT22;6735;51.456;12.626;2022-08-03T04:47:33;17.20;82.80
13332;DHT22;6735;51.456;12.626;2022-08-03T04:50:01;17.30;82.90
13332;DHT22;6735;51.456;12.626;2022-08-03T04:52:26;17.40;82.80
13332;DHT22;6735;51.456;12.626;2022-08-03T04:54:52;17.50;82.60
13332;DHT22;6735;51.456;12.626;2022-08-03T04:57:17;17.70;82.50
13332;DHT22;6735;51.456;12.626;2022-08-03T04:59:43;18.00;81.80
13332;DHT22;6735;51.456;12.626;2022-08-03T05:02:09;18.20;81.20
13332;DHT22;6735;51.456;12.626;2022-08-03T05:04:34;18.30;81.00
13332;DHT22;6735;51.456;12.626;2022-08-03T05:07:00;18.50;80.70
13332;DHT22;6735;51.456;12.626;2022-08-03T05:09:25;20.20;77.30
13332;DHT22;6735;51.456;12.626;2022-08-03T05:11:51;21.20;73.70
13332;DHT22;6735;51.456;12.626;2022-08-03T05:14:16;21.80;72.20
13332;DHT22;6735;51.456;12.626;2022-08-03T05:16:42;22.70;70.00
13332;DHT22;6735;51.456;12.626;2022-08-03T05:19:07;23.90;66.90
13332;DHT22;6735;51.456;12.626;2022-08-03T05:21:33;24.80;64.80
13332;DHT22;6735;51.456;12.626;2022-08-03T05:23:58;24.80;64.00
13332;DHT22;6735;51.456;12.626;2022-08-03T05:26:23;24.30;65.40
13332;DHT22;6735;51.456;12.626;2022-08-03T05:28:49;24.60;65.20
13332;DHT22;6735;51.456;12.626;2022-08-03T05:31:15;25.80;62.20
13332;DHT22;6735;51.456;12.626;2022-08-03T05:33:40;26.90;59.30
13332;DHT22;6735;51.456;12.626;2022-08-03T05:36:07;27.80;56.90
13332;DHT22;6735;51.456;12.626;2022-08-03T05:38:33;28.40;55.30
13332;DHT22;6735;51.456;12.626;2022-08-03T05:40:58;28.10;55.90
13332;DHT22;6735;51.456;12.626;2022-08-03T05:43:24;28.40;55.00
13332;DHT22;6735;51.456;12.626;2022-08-03T05:45:49;29.20;51.60
13332;DHT22;6735;51.456;12.626;2022-08-03T05:48:15;29.80;51.50
13332;DHT22;6735;51.456;12.626;2022-08-03T05:50:40;30.30;49.60
13332;DHT22;6735;51.456;12.626;2022-08-03T05:53:06;30.70;48.00
13332;DHT22;6735;51.456;12.626;2022-08-03T05:55:31;30.80;47.90
13332;DHT22;6735;51.456;12.626;2022-08-03T05:57:57;30.90;47.70
13332;DHT22;6735;51.456;12.626;2022-08-03T06:00:22;31.40;46.30
13332;DHT22;6735;51.456;12.626;2022-08-03T06:02:48;31.40;45.80
13332;DHT22;6735;51.456;12.626;2022-08-03T06:05:13;31.60;44.90
13332;DHT22;6735;51.456;12.626;2022-08-03T06:07:39;31.90;44.70
13332;DHT22;6735;51.456;12.626;2022-08-03T06:10:05;32.50;43.20
13332;DHT22;6735;51.456;12.626;2022-08-03T06:12:31;32.80;42.10
13332;DHT22;6735;51.456;12.626;2022-08-03T06:15:00;33.10;42.00
13332;DHT22;6735;51.456;12.626;2022-08-03T06:17:26;33.40;40.60
13332;DHT22;6735;51.456;12.626;2022-08-03T06:19:52;32.70;41.90
13332;DHT22;6735;51.456;12.626;2022-08-03T06:22:18;32.80;41.20
13332;DHT22;6735;51.456;12.626;2022-08-03T06:24:43;33.20;40.30
13332;DHT22;6735;51.456;12.626;2022-08-03T06:27:09;33.70;39.20
13332;DHT22;6735;51.456;12.626;2022-08-03T06:29:36;33.70;38.60
13332;DHT22;6735;51.456;12.626;2022-08-03T06:32:02;33.40;39.10
13332;DHT22;6735;51.456;12.626;2022-08-03T06:34:27;33.70;38.90
13332;DHT22;6735;51.456;12.626;2022-08-03T06:36:53;34.20;37.70
13332;DHT22;6735;51.456;12.626;2022-08-03T06:39:19;33.90;37.90
13332;DHT22;6735;51.456;12.626;2022-08-03T06:41:45;34.00;37.90
13332;DHT22;6735;51.456;12.626;2022-08-03T06:44:11;34.40;37.00
13332;DHT22;6735;51.456;12.626;2022-08-03T06:46:36;34.20;37.40
13332;DHT22;6735;51.456;12.626;2022-08-03T06:49:02;34.70;36.80
13332;DHT22;6735;51.456;12.626;2022-08-03T06:51:27;34.70;36.30
13332;DHT22;6735;51.456;12.626;2022-08-03T06:53:53;34.60;36.20
13332;DHT22;6735;51.456;12.626;2022-08-03T06:56:19;34.70;35.50
13332;DHT22;6735;51.456;12.626;2022-08-03T06:58:45;34.70;35.00
13332;DHT22;6735;51.456;12.626;2022-08-03T07:01:11;34.70;34.00
13332;DHT22;6735;51.456;12.626;2022-08-03T07:03:37;34.10;34.50
13332;DHT22;6735;51.456;12.626;2022-08-03T07:06:03;33.80;34.70
13332;DHT22;6735;51.456;12.626;2022-08-03T07:08:28;33.90;34.50
13332;DHT22;6735;51.456;12.626;2022-08-03T07:10:53;34.00;34.60
13332;DHT22;6735;51.456;12.626;2022-08-03T07:13:19;33.60;34.70
13332;DHT22;6735;51.456;12.626;2022-08-03T07:15:44;33.60;34.50
13332;DHT22;6735;51.456;12.626;2022-08-03T07:18:10;33.50;34.70
13332;DHT22;6735;51.456;12.626;2022-08-03T07:20:35;33.30;35.00
13332;DHT22;6735;51.456;12.626;2022-08-03T07:23:01;33.70;34.80
13332;DHT22;6735;51.456;12.626;2022-08-03T07:25:26;33.70;35.20
13332;DHT22;6735;51.456;12.626;2022-08-03T07:27:52;33.70;34.40
13332;DHT22;6735;51.456;12.626;2022-08-03T07:30:17;33.00;35.80
13332;DHT22;6735;51.456;12.626;2022-08-03T07:32:43;33.00;35.80
13332;DHT22;6735;51.456;12.626;2022-08-03T07:35:09;32.90;36.10
13332;DHT22;6735;51.456;12.626;2022-08-03T07:37:35;32.70;36.30
13332;DHT22;6735;51.456;12.626;2022-08-03T07:40:02;32.40;36.70
13332;DHT22;6735;51.456;12.626;2022-08-03T07:42:28;32.20;37.10
13332;DHT22;6735;51.456;12.626;2022-08-03T07:44:55;31.80;37.70
13332;DHT22;6735;51.456;12.626;2022-08-03T07:47:25;31.90;37.80
13332;DHT22;6735;51.456;12.626;2022-08-03T07:49:51;32.20;37.20
13332;DHT22;6735;51.456;12.626;2022-08-03T07:52:17;32.20;37.20
13332;DHT22;6735;51.456;12.626;2022-08-03T07:55:01;32.10;37.30
13332;DHT22;6735;51.456;12.626;2022-08-03T07:57:27;32.00;37.30
13332;DHT22;6735;51.456;12.626;2022-08-03T07:59:52;32.20;37.10
13332;DHT22;6735;51.456;12.626;2022-08-03T08:02:18;32.20;36.60
13332;DHT22;6735;51.456;12.626;2022-08-03T08:04:43;32.40;36.00
13332;DHT22;6735;51.456;12.626;2022-08-03T08:07:09;32.10;36.40
13332;DHT22;6735;51.456;12.626;2022-08-03T08:09:35;32.10;36.30
13332;DHT22;6735;51.456;12.626;2022-08-03T08:12:00;32.20;36.20
13332;DHT22;6735;51.456;12.626;2022-08-03T08:14:26;32.00;36.10
13332;DHT22;6735;51.456;12.626;2022-08-03T08:16:51;32.00;36.10
13332;DHT22;6735;51.456;12.626;2022-08-03T08:19:16;32.10;35.50
13332;DHT22;6735;51.456;12.626;2022-08-03T08:21:43;32.30;34.80
13332;DHT22;6735;51.456;12.626;2022-08-03T08:24:08;32.80;34.30
13332;DHT22;6735;51.456;12.626;2022-08-03T08:26:34;33.00;34.00
13332;DHT22;6735;51.456;12.626;2022-08-03T08:29:00;33.20;33.70
13332;DHT22;6735;51.456;12.626;2022-08-03T08:31:25;33.30;33.70
13332;DHT22;6735;51.456;12.626;2022-08-03T08:33:51;33.70;33.20
13332;DHT22;6735;51.456;12.626;2022-08-03T08:36:16;33.80;32.60
13332;DHT22;6735;51.456;12.626;2022-08-03T08:38:42;33.50;33.30
13332;DHT22;6735;51.456;12.626;2022-08-03T08:41:10;33.50;32.90
13332;DHT22;6735;51.456;12.626;2022-08-03T08:43:36;33.30;32.60
13332;DHT22;6735;51.456;12.626;2022-08-03T08:46:01;33.60;32.40
13332;DHT22;6735;51.456;12.626;2022-08-03T08:48:27;34.20;32.30
13332;DHT22;6735;51.456;12.626;2022-08-03T08:50:55;33.70;32.90
13332;DHT22;6735;51.456;12.626;2022-08-03T08:53:22;33.60;33.20
13332;DHT22;6735;51.456;12.626;2022-08-03T08:55:49;33.50;33.00
13332;DHT22;6735;51.456;12.626;2022-08-03T08:58:15;33.40;32.60
13332;DHT22;6735;51.456;12.626;2022-08-03T09:00:44;33.60;32.60
13332;DHT22;6735;51.456;12.626;2022-08-03T09:03:10;34.00;31.60
13332;DHT22;6735;51.456;12.626;2022-08-03T09:05:36;34.40;31.00
13332;DHT22;6735;51.456;12.626;2022-08-03T09:08:04;34.70;30.30
13332;DHT22;6735;51.456;12.626;2022-08-03T09:10:30;34.90;29.80
13332;DHT22;6735;51.456;12.626;2022-08-03T09:12:55;35.00;29.10
13332;DHT22;6735;51.456;12.626;2022-08-03T09:15:22;35.10;28.50
13332;DHT22;6735;51.456;12.626;2022-08-03T09:17:49;34.90;28.80
13332;DHT22;6735;51.456;12.626;2022-08-03T09:20:15;35.20;28.60
13332;DHT22;6735;51.456;12.626;2022-08-03T09:22:59;35.20;28.90
13332;DHT22;6735;51.456;12.626;2022-08-03T09:25:36;35.60;27.90
13332;DHT22;6735;51.456;12.626;2022-08-03T09:28:13;35.70;28.20
13332;DHT22;6735;51.456;12.626;2022-08-03T09:30:44;35.70;27.50
13332;DHT22;6735;51.456;12.626;2022-08-03T09:33:21;35.60;27.90
13332;DHT22;6735;51.456;12.626;2022-08-03T09:35:47;35.60;28.20
13332;DHT22;6735;51.456;12.626;2022-08-03T09:38:21;35.70;28.10
13332;DHT22;6735;51.456;12.626;2022-08-03T09:40:52;36.00;27.40
13332;DHT22;6735;51.456;12.626;2022-08-03T09:43:17;35.90;27.20
13332;DHT22;6735;51.456;12.626;2022-08-03T09:45:43;35.90;27.50
13332;DHT22;6735;51.456;12.626;2022-08-03T09:48:26;35.90;27.00
13332;DHT22;6735;51.456;12.626;2022-08-03T09:50:54;36.00;26.30
13332;DHT22;6735;51.456;12.626;2022-08-03T09:53:21;36.10;27.10
13332;DHT22;6735;51.456;12.626;2022-08-03T09:56:04;36.30;26.70
13332;DHT22;6735;51.456;12.626;2022-08-03T09:58:30;36.20;25.70
13332;DHT22;6735;51.456;12.626;2022-08-03T10:01:03;35.90;26.50
13332;DHT22;6735;51.456;12.626;2022-08-03T10:03:31;36.20;26.10
13332;DHT22;6735;51.456;12.626;2022-08-03T10:05:57;36.20;25.70
13332;DHT22;6735;51.456;12.626;2022-08-03T10:08:23;36.00;25.60
13332;DHT22;6735;51.456;12.626;2022-08-03T10:10:50;35.90;25.80
13332;DHT22;6735;51.456;12.626;2022-08-03T10:13:19;36.00;26.00
13332;DHT22;6735;51.456;12.626;2022-08-03T10:15:45;35.70;26.00
13332;DHT22;6735;51.456;12.626;2022-08-03T10:18:11;36.10;25.60
13332;DHT22;6735;51.456;12.626;2022-08-03T10:20:42;36.20;25.30
13332;DHT22;6735;51.456;12.626;2022-08-03T10:23:09;36.20;25.40
13332;DHT22;6735;51.456;12.626;2022-08-03T10:25:37;36.40;25.50
13332;DHT22;6735;51.456;12.626;2022-08-03T10:28:03;36.30;25.30
13332;DHT22;6735;51.456;12.626;2022-08-03T10:30:31;36.20;25.00
13332;DHT22;6735;51.456;12.626;2022-08-03T10:33:04;36.30;25.00
13332;DHT22;6735;51.456;12.626;2022-08-03T10:35:31;36.30;25.00
13332;DHT22;6735;51.456;12.626;2022-08-03T10:37:58;36.60;24.30
13332;DHT22;6735;51.456;12.626;2022-08-03T10:40:29;36.70;24.60
13332;DHT22;6735;51.456;12.626;2022-08-03T10:43:06;36.70;24.30
13332;DHT22;6735;51.456;12.626;2022-08-03T10:45:33;36.40;24.80
13332;DHT22;6735;51.456;12.626;2022-08-03T10:48:00;36.30;24.90
13332;DHT22;6735;51.456;12.626;2022-08-03T10:50:26;36.50;24.60
13332;DHT22;6735;51.456;12.626;2022-08-03T10:53:12;36.70;24.10
13332;DHT22;6735;51.456;12.626;2022-08-03T10:55:43;36.70;24.30
13332;DHT22;6735;51.456;12.626;2022-08-03T11:01:04;36.50;23.90
13332;DHT22;6735;51.456;12.626;2022-08-03T11:03:30;36.60;24.10
13332;DHT22;6735;51.456;12.626;2022-08-03T11:06:16;36.60;24.00
13332;DHT22;6735;51.456;12.626;2022-08-03T11:08:47;36.80;23.20
13332;DHT22;6735;51.456;12.626;2022-08-03T11:14:08;36.50;23.80
13332;DHT22;6735;51.456;12.626;2022-08-03T11:16:45;36.50;23.40
13332;DHT22;6735;51.456;12.626;2022-08-03T11:19:14;36.40;24.10
13332;DHT22;6735;51.456;12.626;2022-08-03T11:30:14;36.10;24.40
13332;DHT22;6735;51.456;12.626;2022-08-03T11:35:21;36.30;24.20
13332;DHT22;6735;51.456;12.626;2022-08-03T11:38:01;36.20;24.50
13332;DHT22;6735;51.456;12.626;2022-08-03T11:40:51;36.20;24.30
13332;DHT22;6735;51.456;12.626;2022-08-03T11:48:39;36.00;23.50
13332;DHT22;6735;51.456;12.626;2022-08-03T11:51:07;36.00;23.80
13332;DHT22;6735;51.456;12.626;2022-08-03T11:53:42;36.20;23.90
13332;DHT22;6735;51.456;12.626;2022-08-03T11:56:08;36.50;24.00
13332;DHT22;6735;51.456;12.626;2022-08-03T11:58:33;36.70;23.80
13332;DHT22;6735;51.456;12.626;2022-08-03T12:01:06;36.50;23.60
13332;DHT22;6735;51.456;12.626;2022-08-03T12:03:33;36.40;23.10
13332;DHT22;6735;51.456;12.626;2022-08-03T12:05:59;36.40;23.50
13332;DHT22;6735;51.456;12.626;2022-08-03T12:08:31;36.40;23.20
13332;DHT22;6735;51.456;12.626;2022-08-03T12:10:58;36.60;22.90
13332;DHT22;6735;51.456;12.626;2022-08-03T12:13:24;36.50;22.80
13332;DHT22;6735;51.456;12.626;2022-08-03T12:15:52;36.70;22.60
13332;DHT22;6735;51.456;12.626;2022-08-03T12:18:19;36.80;22.20
13332;DHT22;6735;51.456;12.626;2022-08-03T12:20:46;36.70;22.70
13332;DHT22;6735;51.456;12.626;2022-08-03T12:23:13;36.60;22.70
13332;DHT22;6735;51.456;12.626;2022-08-03T12:25:40;36.70;22.20
13332;DHT22;6735;51.456;12.626;2022-08-03T12:28:12;36.70;22.50
13332;DHT22;6735;51.456;12.626;2022-08-03T12:30:41;36.70;22.50
13332;DHT22;6735;51.456;12.626;2022-08-03T12:33:12;36.60;22.60
13332;DHT22;6735;51.456;12.626;2022-08-03T12:35:37;36.60;22.50
13332;DHT22;6735;51.456;12.626;2022-08-03T12:38:03;36.60;22.50
13332;DHT22;6735;51.456;12.626;2022-08-03T12:40:28;36.60;22.50
13332;DHT22;6735;51.456;12.626;2022-08-03T12:42:54;36.60;22.60
13332;DHT22;6735;51.456;12.626;2022-08-03T12:45:27;36.70;22.50
13332;DHT22;6735;51.456;12.626;2022-08-03T12:47:58;36.70;21.70
13332;DHT22;6735;51.456;12.626;2022-08-03T12:50:25;36.40;22.40
13332;DHT22;6735;51.456;12.626;2022-08-03T12:52:51;36.10;22.60
13332;DHT22;6735;51.456;12.626;2022-08-03T12:55:21;35.90;22.50
13332;DHT22;6735;51.456;12.626;2022-08-03T12:57:47;36.20;22.40
13332;DHT22;6735;51.456;12.626;2022-08-03T13:00:14;36.40;22.10
13332;DHT22;6735;51.456;12.626;2022-08-03T13:02:41;36.50;22.30
13332;DHT22;6735;51.456;12.626;2022-08-03T13:05:12;36.70;22.20
13332;DHT22;6735;51.456;12.626;2022-08-03T13:07:44;36.80;21.90
13332;DHT22;6735;51.456;12.626;2022-08-03T13:10:11;36.70;21.40
13332;DHT22;6735;51.456;12.626;2022-08-03T13:12:47;36.50;21.70
13332;DHT22;6735;51.456;12.626;2022-08-03T13:15:13;36.50;21.20
13332;DHT22;6735;51.456;12.626;2022-08-03T13:17:38;36.40;21.80
13332;DHT22;6735;51.456;12.626;2022-08-03T13:20:05;36.40;22.10
13332;DHT22;6735;51.456;12.626;2022-08-03T13:22:30;36.50;22.40
13332;DHT22;6735;51.456;12.626;2022-08-03T13:24:57;36.70;22.30
13332;DHT22;6735;51.456;12.626;2022-08-03T13:27:26;36.80;22.00
13332;DHT22;6735;51.456;12.626;2022-08-03T13:29:52;36.80;21.90
13332;DHT22;6735;51.456;12.626;2022-08-03T13:32:17;36.80;21.50
13332;DHT22;6735;51.456;12.626;2022-08-03T13:34:43;36.90;21.30
13332;DHT22;6735;51.456;12.626;2022-08-03T13:37:09;37.00;21.10
13332;DHT22;6735;51.456;12.626;2022-08-03T13:39:39;37.10;21.00
13332;DHT22;6735;51.456;12.626;2022-08-03T13:42:05;37.00;21.10
13332;DHT22;6735;51.456;12.626;2022-08-03T13:44:31;37.10;20.90
13332;DHT22;6735;51.456;12.626;2022-08-03T13:46:57;37.10;20.60
13332;DHT22;6735;51.456;12.626;2022-08-03T13:49:27;36.90;20.50
13332;DHT22;6735;51.456;12.626;2022-08-03T13:51:53;36.70;20.70
13332;DHT22;6735;51.456;12.626;2022-08-03T13:54:18;36.60;21.00
13332;DHT22;6735;51.456;12.626;2022-08-03T13:56:44;36.60;21.00
13332;DHT22;6735;51.456;12.626;2022-08-03T13:59:17;36.70;20.90
13332;DHT22;6735;51.456;12.626;2022-08-03T14:01:42;36.70;21.00
13332;DHT22;6735;51.456;12.626;2022-08-03T14:04:08;36.90;20.80
13332;DHT22;6735;51.456;12.626;2022-08-03T14:06:33;36.70;20.90
13332;DHT22;6735;51.456;12.626;2022-08-03T14:08:59;36.50;21.20
13332;DHT22;6735;51.456;12.626;2022-08-03T14:11:24;36.50;21.20
13332;DHT22;6735;51.456;12.626;2022-08-03T14:13:50;36.30;21.50
13332;DHT22;6735;51.456;12.626;2022-08-03T14:16:15;36.30;21.70
13332;DHT22;6735;51.456;12.626;2022-08-03T14:18:40;36.30;21.70
13332;DHT22;6735;51.456;12.626;2022-08-03T14:21:07;36.30;21.70
13332;DHT22;6735;51.456;12.626;2022-08-03T14:23:33;36.50;21.50
13332;DHT22;6735;51.456;12.626;2022-08-03T14:25:59;36.40;21.60
13332;DHT22;6735;51.456;12.626;2022-08-03T14:28:25;36.30;21.20
13332;DHT22;6735;51.456;12.626;2022-08-03T14:30:51;36.50;21.20
13332;DHT22;6735;51.456;12.626;2022-08-03T14:33:18;36.40;21.40
13332;DHT22;6735;51.456;12.626;2022-08-03T14:35:44;36.50;21.40
13332;DHT22;6735;51.456;12.626;2022-08-03T14:38:09;36.50;21.20
13332;DHT22;6735;51.456;12.626;2022-08-03T14:40:35;36.60;21.20
13332;DHT22;6735;51.456;12.626;2022-08-03T14:43:00;36.50;21.70
13332;DHT22;6735;51.456;12.626;2022-08-03T14:45:26;36.40;22.30
13332;DHT22;6735;51.456;12.626;2022-08-03T14:47:52;36.20;22.30
13332;DHT22;6735;51.456;12.626;2022-08-03T14:50:17;36.00;22.30
13332;DHT22;6735;51.456;12.626;2022-08-03T14:52:43;35.90;22.00
13332;DHT22;6735;51.456;12.626;2022-08-03T14:55:08;35.90;21.80
13332;DHT22;6735;51.456;12.626;2022-08-03T14:57:34;35.90;22.00
13332;DHT22;6735;51.456;12.626;2022-08-03T14:59:59;35.80;22.30
13332;DHT22;6735;51.456;12.626;2022-08-03T15:02:25;35.70;22.20
13332;DHT22;6735;51.456;12.626;2022-08-03T15:04:52;35.70;22.40
13332;DHT22;6735;51.456;12.626;2022-08-03T15:07:17;35.70;22.40
13332;DHT22;6735;51.456;12.626;2022-08-03T15:09:43;35.70;22.60
13332;DHT22;6735;51.456;12.626;2022-08-03T15:12:08;35.70;23.10
13332;DHT22;6735;51.456;12.626;2022-08-03T15:14:34;35.60;23.00
13332;DHT22;6735;51.456;12.626;2022-08-03T15:17:00;35.50;22.40
13332;DHT22;6735;51.456;12.626;2022-08-03T15:19:25;35.30;22.30
13332;DHT22;6735;51.456;12.626;2022-08-03T15:21:50;35.20;22.00
13332;DHT22;6735;51.456;12.626;2022-08-03T15:24:16;35.10;21.60
13332;DHT22;6735;51.456;12.626;2022-08-03T15:26:42;35.20;21.40
13332;DHT22;6735;51.456;12.626;2022-08-03T15:29:07;35.20;21.10
13332;DHT22;6735;51.456;12.626;2022-08-03T15:31:33;35.00;21.60
13332;DHT22;6735;51.456;12.626;2022-08-03T15:33:58;34.80;22.00
13332;DHT22;6735;51.456;12.626;2022-08-03T15:36:24;34.70;22.10
13332;DHT22;6735;51.456;12.626;2022-08-03T15:38:51;34.50;22.70
13332;DHT22;6735;51.456;12.626;2022-08-03T15:41:16;34.50;22.30
13332;DHT22;6735;51.456;12.626;2022-08-03T15:43:42;34.50;22.00
13332;DHT22;6735;51.456;12.626;2022-08-03T15:46:08;34.40;22.20
13332;DHT22;6735;51.456;12.626;2022-08-03T15:48:33;34.30;22.30
13332;DHT22;6735;51.456;12.626;2022-08-03T15:50:59;34.20;22.10
13332;DHT22;6735;51.456;12.626;2022-08-03T15:53:24;34.20;22.00
13332;DHT22;6735;51.456;12.626;2022-08-03T15:55:50;34.30;22.30
13332;DHT22;6735;51.456;12.626;2022-08-03T15:58:15;34.40;22.20
13332;DHT22;6735;51.456;12.626;2022-08-03T16:00:42;34.30;22.20
13332;DHT22;6735;51.456;12.626;2022-08-03T16:03:08;34.20;22.30
13332;DHT22;6735;51.456;12.626;2022-08-03T16:05:34;34.10;22.60